Time;durP1;ratioP1;P1;durP2;ratioP2;P2;SDS_P1;SDS_P2;PMS_P1;PMS_P2;Temp;Humidity;BMP_temperature;BMP_pressure;BME280_temperature;BME280_humidity;BME280_pressure;Samples;Min_cycle;Max_cycle;Signal;HPM_P1;HPM_P2
2022/10/27 00:01:50;;;;;;;11.80;5.60;;;14.60;99.90;;;;;;5033105;28;20068;-73
2022/10/27 00:04:16;;;;;;;10.18;6.38;;;14.60;99.90;;;;;;5046514;28;20073;-74
2022/10/27 00:06:42;;;;;;;7.75;5.32;;;14.60;99.90;;;;;;5031117;28;20078;-74
2022/10/27 00:09:07;;;;;;;8.10;5.78;;;14.60;99.90;;;;;;5039095;28;20358;-73
2022/10/27 00:11:33;;;;;;;6.93;5.15;;;14.50;99.90;;;;;;5030698;28;20087;-73
2022/10/27 00:13:58;;;;;;;7.57;5.40;;;14.50;99.90;;;;;;5032904;28;20087;-74
2022/10/27 00:16:24;;;;;;;7.07;5.03;;;14.50;99.90;;;;;;5034903;28;20034;-74
2022/10/27 00:18:50;;;;;;;10.20;6.07;;;14.50;99.90;;;;;;5031669;28;20087;-73
2022/10/27 00:21:18;;;;;;;10.05;5.57;;;14.50;99.90;;;;;;5034411;28;20029;-74
2022/10/27 00:23:48;;;;;;;7.97;5.53;;;14.50;99.90;;;;;;5046421;28;20040;-75
2022/10/27 00:26:14;;;;;;;6.50;5.18;;;14.50;99.90;;;;;;5028096;28;20642;-74
2022/10/27 00:28:40;;;;;;;8.20;5.47;;;14.50;99.90;;;;;;5049752;28;20043;-75
2022/10/27 00:31:13;;;;;;;9.10;5.15;;;14.50;99.90;;;;;;5035824;28;20354;-75
2022/10/27 00:33:40;;;;;;;9.73;5.88;;;14.50;99.90;;;;;;5038811;28;20032;-74
2022/10/27 00:36:10;;;;;;;10.95;5.88;;;14.50;99.90;;;;;;5034786;28;20036;-75
2022/10/27 00:38:36;;;;;;;7.78;5.55;;;14.50;99.90;;;;;;5032663;28;20033;-74
2022/10/27 00:41:04;;;;;;;7.10;5.50;;;14.40;99.90;;;;;;5037379;28;20033;-73
2022/10/27 00:43:38;;;;;;;7.60;5.82;;;14.40;99.90;;;;;;5070875;28;20109;-74
2022/10/27 00:46:26;;;;;;;6.47;5.30;;;14.40;99.90;;;;;;5035608;28;20105;-74
2022/10/27 00:48:57;;;;;;;7.22;5.38;;;14.40;99.90;;;;;;5012658;28;20030;-73
2022/10/27 00:51:23;;;;;;;8.57;5.68;;;14.40;99.90;;;;;;5031106;28;20025;-74
2022/10/27 00:53:49;;;;;;;8.77;5.25;;;14.40;99.90;;;;;;5040304;28;20033;-74
2022/10/27 00:56:16;;;;;;;8.93;5.75;;;14.40;99.90;;;;;;5029823;28;20044;-73
2022/10/27 00:58:44;;;;;;;7.03;5.95;;;14.40;99.90;;;;;;5031980;28;20373;-72
2022/10/27 01:01:10;;;;;;;7.25;5.63;;;14.40;99.90;;;;;;5029723;28;20037;-72
2022/10/27 01:03:36;;;;;;;8.02;5.35;;;14.40;99.90;;;;;;5018808;28;20392;-72
2022/10/27 01:06:02;;;;;;;8.18;4.80;;;14.30;99.90;;;;;;5029689;28;20029;-72
2022/10/27 01:08:28;;;;;;;8.05;5.20;;;14.40;99.90;;;;;;5030816;28;20031;-72
2022/10/27 01:10:54;;;;;;;7.63;5.82;;;14.30;99.90;;;;;;5043435;28;20049;-72
2022/10/27 01:13:20;;;;;;;7.88;5.50;;;14.30;99.90;;;;;;5045140;28;20441;-72
2022/10/27 01:16:20;;;;;;;7.65;5.32;;;14.30;99.90;;;;;;5037573;28;20400;-72
2022/10/27 01:19:17;;;;;;;6.63;5.10;;;14.30;99.90;;;;;;5040536;28;20041;-72
2022/10/27 01:22:03;;;;;;;7.65;5.60;;;14.30;99.90;;;;;;5041572;28;20107;-72
2022/10/27 01:24:46;;;;;;;7.20;5.25;;;14.20;99.90;;;;;;5041593;28;20029;-72
2022/10/27 01:27:24;;;;;;;9.27;5.80;;;14.20;99.90;;;;;;5036305;28;20031;-72
2022/10/27 01:29:56;;;;;;;8.32;5.28;;;14.20;99.90;;;;;;5030388;28;20115;-73
2022/10/27 01:32:40;;;;;;;6.80;5.35;;;14.20;99.90;;;;;;5039731;28;20492;-73
2022/10/27 01:35:40;;;;;;;8.27;5.53;;;14.20;99.90;;;;;;5028601;28;20108;-72
2022/10/27 01:38:24;;;;;;;8.30;5.35;;;14.20;99.90;;;;;;5039888;28;20036;-72
2022/10/27 01:41:06;;;;;;;6.90;5.35;;;14.10;99.90;;;;;;5037666;28;20104;-71
2022/10/27 01:43:34;;;;;;;13.30;5.75;;;14.10;99.90;;;;;;5035320;28;20068;-72
2022/10/27 01:46:03;;;;;;;7.85;5.38;;;14.00;99.90;;;;;;5025639;28;20028;-72
2022/10/27 01:48:32;;;;;;;8.30;6.13;;;14.00;99.90;;;;;;5033015;28;20035;-72
2022/10/27 01:50:58;;;;;;;7.10;5.43;;;14.00;99.90;;;;;;5038040;28;20035;-72
2022/10/27 01:53:24;;;;;;;7.43;5.25;;;14.10;99.90;;;;;;5032308;28;20029;-73
2022/10/27 01:55:59;;;;;;;8.75;5.00;;;14.00;99.90;;;;;;5045046;28;20494;-73
2022/10/27 01:58:46;;;;;;;7.63;5.47;;;14.10;99.90;;;;;;5028686;28;20503;-72
2022/10/27 02:01:15;;;;;;;10.80;5.72;;;14.00;99.90;;;;;;5026055;28;20040;-72
2022/10/27 02:03:55;;;;;;;8.50;5.35;;;14.00;99.90;;;;;;5032481;28;20103;-73
2022/10/27 02:06:30;;;;;;;8.98;6.00;;;14.00;99.90;;;;;;5028591;28;20120;-72
2022/10/27 02:09:18;;;;;;;7.90;5.68;;;14.00;99.90;;;;;;5030773;28;20039;-73
2022/10/27 02:11:47;;;;;;;8.35;5.60;;;14.00;99.90;;;;;;5029684;28;20022;-73
2022/10/27 02:14:14;;;;;;;7.88;5.60;;;14.00;99.90;;;;;;5037917;28;20052;-72
2022/10/27 02:16:45;;;;;;;7.95;5.55;;;14.00;99.90;;;;;;5032645;28;20030;-73
2022/10/27 02:19:19;;;;;;;8.40;6.00;;;14.00;99.90;;;;;;5033590;28;20044;-73
2022/10/27 02:21:48;;;;;;;7.65;5.32;;;14.00;99.90;;;;;;5033044;28;20026;-73
2022/10/27 02:24:16;;;;;;;7.90;5.53;;;13.90;99.90;;;;;;5041062;28;20114;-73
2022/10/27 02:26:51;;;;;;;8.45;5.22;;;13.90;99.90;;;;;;5036043;28;20037;-72
2022/10/27 02:29:26;;;;;;;8.90;5.53;;;14.00;99.90;;;;;;5034773;28;20033;-72
2022/10/27 02:31:53;;;;;;;;;;;13.90;99.90;;;;;;5025343;28;20078;-73
2022/10/27 02:34:20;;;;;;;10.07;4.75;;;14.00;99.90;;;;;;5041103;28;19909;-73
2022/10/27 02:36:46;;;;;;;7.30;5.25;;;13.90;99.90;;;;;;5036261;28;20088;-73
2022/10/27 02:39:12;;;;;;;6.90;5.38;;;13.90;99.90;;;;;;5035340;28;20029;-72
2022/10/27 02:41:38;;;;;;;6.05;4.75;;;13.90;99.90;;;;;;5051672;28;20041;-72
2022/10/27 02:44:03;;;;;;;9.52;5.75;;;13.90;99.90;;;;;;5033200;28;20033;-73
2022/10/27 02:46:29;;;;;;;10.10;6.07;;;13.90;99.90;;;;;;5044167;28;20380;-73
2022/10/27 02:48:54;;;;;;;7.50;5.38;;;13.90;99.90;;;;;;5044385;28;20032;-73
2022/10/27 02:51:20;;;;;;;9.00;5.13;;;13.90;99.90;;;;;;5044469;28;20040;-73
2022/10/27 02:53:45;;;;;;;7.57;5.47;;;13.90;99.90;;;;;;5050525;28;20033;-75
2022/10/27 02:56:11;;;;;;;7.38;5.20;;;13.90;99.90;;;;;;5037979;28;20032;-74
2022/10/27 02:58:37;;;;;;;8.40;5.93;;;13.90;99.90;;;;;;5047628;28;20035;-73
2022/10/27 03:01:02;;;;;;;8.27;5.38;;;13.90;99.90;;;;;;5035402;28;20469;-73
2022/10/27 03:03:28;;;;;;;9.25;5.90;;;13.90;99.90;;;;;;5041082;28;20098;-74
2022/10/27 03:05:54;;;;;;;8.88;5.32;;;13.90;99.90;;;;;;5037156;28;20574;-74
2022/10/27 03:08:20;;;;;;;9.13;5.50;;;13.90;99.90;;;;;;5047825;28;20055;-73
2022/10/27 03:10:45;;;;;;;9.63;6.13;;;13.90;99.90;;;;;;5052517;28;20115;-73
2022/10/27 03:13:11;;;;;;;7.63;5.13;;;13.90;99.90;;;;;;5046713;28;20553;-73
2022/10/27 03:15:36;;;;;;;7.00;5.35;;;13.90;99.90;;;;;;5048388;28;20018;-72
2022/10/27 03:18:02;;;;;;;7.45;6.05;;;13.90;99.90;;;;;;5034439;28;20064;-73
2022/10/27 03:20:28;;;;;;;12.10;6.70;;;13.90;99.90;;;;;;5047224;28;20032;-72
2022/10/27 03:22:54;;;;;;;8.73;5.40;;;13.90;99.90;;;;;;5040320;28;20045;-72
2022/10/27 03:25:19;;;;;;;7.18;5.35;;;13.90;99.90;;;;;;5040854;28;20014;-73
2022/10/27 03:27:45;;;;;;;7.25;4.90;;;13.90;99.90;;;;;;5034541;28;20031;-73
2022/10/27 03:30:13;;;;;;;9.98;5.40;;;13.90;99.90;;;;;;5034205;28;20361;-73
2022/10/27 03:32:43;;;;;;;9.07;4.80;;;13.90;99.90;;;;;;5042103;28;20033;-73
2022/10/27 03:35:08;;;;;;;6.93;5.13;;;13.90;99.90;;;;;;5043016;28;20031;-73
2022/10/27 03:37:34;;;;;;;7.40;5.50;;;13.90;99.90;;;;;;5033692;28;20459;-71
2022/10/27 03:39:59;;;;;;;7.57;5.00;;;13.90;99.90;;;;;;5033454;28;20026;-73
2022/10/27 03:42:25;;;;;;;7.28;5.22;;;13.90;99.90;;;;;;5041613;28;20041;-73
2022/10/27 03:44:50;;;;;;;8.63;5.75;;;13.80;99.90;;;;;;5050995;28;20103;-73
2022/10/27 03:47:16;;;;;;;9.20;5.25;;;13.80;99.90;;;;;;5039228;28;20038;-72
2022/10/27 03:49:43;;;;;;;6.47;4.63;;;13.80;99.90;;;;;;5036986;28;20043;-73
2022/10/27 03:52:09;;;;;;;10.38;6.22;;;13.80;99.90;;;;;;5034999;28;20022;-72
2022/10/27 03:54:34;;;;;;;7.82;5.30;;;13.70;99.90;;;;;;5036208;28;20025;-71
2022/10/27 03:57:01;;;;;;;6.97;5.80;;;13.70;99.90;;;;;;5033764;28;20026;-72
2022/10/27 03:59:26;;;;;;;7.70;5.07;;;13.80;99.90;;;;;;5033393;28;20032;-72
2022/10/27 04:01:52;;;;;;;8.85;5.40;;;13.70;99.90;;;;;;5033974;28;20021;-72
2022/10/27 04:04:17;;;;;;;8.63;5.68;;;13.80;99.90;;;;;;5032883;28;20112;-72
2022/10/27 04:06:43;;;;;;;10.05;6.00;;;13.70;99.90;;;;;;5028398;28;20037;-72
2022/10/27 04:09:09;;;;;;;8.20;5.50;;;13.70;99.90;;;;;;5031952;28;20033;-73
2022/10/27 04:11:34;;;;;;;8.68;5.80;;;13.70;99.90;;;;;;5040542;28;20031;-72
2022/10/27 04:14:00;;;;;;;8.85;5.55;;;13.70;99.90;;;;;;5033031;28;20354;-72
2022/10/27 04:16:25;;;;;;;7.28;6.28;;;13.70;99.90;;;;;;5031186;28;20143;-72
2022/10/27 04:18:51;;;;;;;8.05;5.35;;;13.70;99.90;;;;;;5032573;28;20057;-73
2022/10/27 04:21:17;;;;;;;9.50;5.82;;;13.70;99.90;;;;;;5032074;28;20038;-73
2022/10/27 04:23:44;;;;;;;7.82;5.53;;;13.60;99.90;;;;;;5028350;28;20045;-73
2022/10/27 04:26:10;;;;;;;9.43;5.50;;;13.70;99.90;;;;;;5032546;28;20030;-73
2022/10/27 04:28:35;;;;;;;7.43;5.40;;;13.70;99.90;;;;;;5044368;28;20472;-73
2022/10/27 04:31:01;;;;;;;9.98;6.10;;;13.60;99.90;;;;;;5030894;28;20494;-73
2022/10/27 04:33:27;;;;;;;8.07;5.55;;;13.60;99.90;;;;;;5032757;28;20036;-72
2022/10/27 04:35:52;;;;;;;8.35;5.65;;;13.60;99.90;;;;;;5051150;28;20111;-71
2022/10/27 04:38:18;;;;;;;8.88;5.93;;;13.60;99.90;;;;;;5036048;28;20083;-72
2022/10/27 04:40:43;;;;;;;8.73;5.50;;;13.60;99.90;;;;;;5042789;28;20029;-71
2022/10/27 04:43:09;;;;;;;9.57;5.90;;;13.60;99.90;;;;;;5033538;28;20042;-74
2022/10/27 04:45:35;;;;;;;10.98;5.47;;;13.50;99.90;;;;;;5033108;28;20131;-72
2022/10/27 04:48:03;;;;;;;7.28;5.32;;;13.60;99.90;;;;;;5035195;28;20029;-73
2022/10/27 04:50:28;;;;;;;11.05;5.30;;;13.50;99.90;;;;;;5033923;28;20017;-72
2022/10/27 04:53:00;;;;;;;7.85;5.72;;;13.60;99.90;;;;;;5035729;28;20376;-73
2022/10/27 04:55:27;;;;;;;7.35;5.53;;;13.50;99.90;;;;;;5046867;28;20452;-72
2022/10/27 04:57:53;;;;;;;8.57;5.88;;;13.50;99.90;;;;;;5035297;28;20383;-71
2022/10/27 05:00:20;;;;;;;13.63;5.75;;;13.50;99.90;;;;;;5052148;28;20035;-73
2022/10/27 05:02:52;;;;;;;8.48;5.43;;;13.50;99.90;;;;;;5032332;28;20136;-72
2022/10/27 05:05:36;;;;;;;7.57;5.65;;;13.50;99.90;;;;;;5035047;28;20029;-74
2022/10/27 05:08:02;;;;;;;7.18;5.82;;;13.40;99.90;;;;;;5043495;28;20060;-72
2022/10/27 05:10:30;;;;;;;8.38;6.07;;;13.50;99.90;;;;;;5036985;28;20060;-73
2022/10/27 05:12:55;;;;;;;8.98;5.88;;;13.50;99.90;;;;;;5031254;28;20059;-71
2022/10/27 05:15:21;;;;;;;9.77;6.00;;;13.50;99.90;;;;;;5029968;28;20037;-71
2022/10/27 05:17:47;;;;;;;7.57;5.50;;;13.50;99.90;;;;;;5028046;28;20075;-72
2022/10/27 05:20:13;;;;;;;8.70;5.82;;;13.50;99.90;;;;;;5037243;28;20494;-73
2022/10/27 05:22:39;;;;;;;9.35;5.78;;;13.50;99.90;;;;;;5045192;28;20047;-73
2022/10/27 05:25:09;;;;;;;11.50;6.50;;;13.50;99.90;;;;;;5028123;28;20400;-75
2022/10/27 05:27:35;;;;;;;8.60;5.32;;;13.50;99.90;;;;;;5036795;28;20036;-75
2022/10/27 05:30:01;;;;;;;8.07;5.63;;;13.40;99.90;;;;;;5034301;28;20029;-74
2022/10/27 05:32:26;;;;;;;9.45;5.88;;;13.50;99.90;;;;;;5036079;28;20028;-72
2022/10/27 05:34:52;;;;;;;10.10;6.63;;;13.40;99.90;;;;;;5044216;28;20072;-72
2022/10/27 05:37:18;;;;;;;8.32;5.78;;;13.50;99.90;;;;;;5040774;28;20074;-72
2022/10/27 05:39:50;;;;;;;9.25;6.60;;;13.50;99.90;;;;;;5046130;28;20447;-74
2022/10/27 05:42:16;;;;;;;9.68;5.68;;;13.40;99.90;;;;;;5036019;28;20253;-71
2022/10/27 05:44:41;;;;;;;8.75;5.72;;;13.50;99.90;;;;;;5045031;28;20032;-72
2022/10/27 05:47:07;;;;;;;8.38;5.75;;;13.40;99.90;;;;;;5041993;28;20028;-72
2022/10/27 05:49:33;;;;;;;8.73;6.25;;;13.50;99.90;;;;;;5042040;28;20077;-71
2022/10/27 05:51:58;;;;;;;10.50;5.85;;;13.40;99.90;;;;;;5036871;28;20029;-72
2022/10/27 05:54:24;;;;;;;7.97;5.70;;;13.40;99.90;;;;;;5033107;28;20389;-72
2022/10/27 05:56:50;;;;;;;11.43;5.95;;;13.40;99.90;;;;;;5034775;28;20497;-71
2022/10/27 05:59:16;;;;;;;8.02;5.50;;;13.40;99.90;;;;;;5040423;28;20024;-72
2022/10/27 06:01:41;;;;;;;8.43;6.25;;;13.40;99.90;;;;;;5047092;28;20036;-72
2022/10/27 06:04:07;;;;;;;7.75;5.78;;;13.40;99.90;;;;;;5040307;28;20165;-72
2022/10/27 06:06:33;;;;;;;10.10;6.45;;;13.40;99.90;;;;;;5033592;28;20025;-72
2022/10/27 06:08:58;;;;;;;9.93;6.07;;;13.40;99.90;;;;;;5031885;28;20033;-72
2022/10/27 06:11:27;;;;;;;12.07;6.88;;;13.40;99.90;;;;;;5033666;28;20025;-73
2022/10/27 06:13:54;;;;;;;8.25;6.22;;;13.40;99.90;;;;;;5040176;28;20021;-73
2022/10/27 06:16:21;;;;;;;9.52;6.00;;;13.30;99.90;;;;;;5040971;28;20033;-73
2022/10/27 06:18:47;;;;;;;8.40;6.30;;;13.30;99.90;;;;;;5050810;28;20021;-72
2022/10/27 06:21:14;;;;;;;8.48;6.13;;;13.40;99.90;;;;;;5040650;28;20495;-72
2022/10/27 06:23:40;;;;;;;11.00;7.03;;;13.40;99.90;;;;;;5044810;28;20072;-71
2022/10/27 06:26:07;;;;;;;8.60;6.22;;;13.40;99.90;;;;;;5035251;28;20033;-71
2022/10/27 06:28:33;;;;;;;10.57;7.00;;;13.50;99.90;;;;;;5038905;28;20484;-72
2022/10/27 06:30:59;;;;;;;9.10;6.55;;;13.50;99.90;;;;;;5016056;28;20049;-75
2022/10/27 06:33:25;;;;;;;16.35;6.50;;;13.50;99.90;;;;;;5034401;28;20035;-73
2022/10/27 06:35:50;;;;;;;12.80;6.43;;;13.50;99.90;;;;;;5019476;28;20032;-72
2022/10/27 06:38:17;;;;;;;8.05;6.28;;;13.60;99.90;;;;;;5041118;28;20068;-72
2022/10/27 06:40:43;;;;;;;8.35;6.20;;;13.60;99.90;;;;;;5037779;28;20028;-74
2022/10/27 06:43:12;;;;;;;11.00;7.40;;;13.70;99.90;;;;;;5039208;28;20056;-74
2022/10/27 06:45:38;;;;;;;8.60;6.18;;;13.70;99.90;;;;;;5031709;28;20061;-74
2022/10/27 06:48:08;;;;;;;9.93;6.35;;;13.70;99.90;;;;;;5043292;28;20100;-74
2022/10/27 06:50:35;;;;;;;9.90;6.25;;;13.80;99.90;;;;;;5040467;28;20071;-74
2022/10/27 06:53:01;;;;;;;9.10;6.38;;;13.80;99.90;;;;;;5035562;28;20125;-72
2022/10/27 06:55:27;;;;;;;12.38;6.45;;;13.80;99.90;;;;;;5041268;28;20029;-73
2022/10/27 06:57:53;;;;;;;9.98;6.70;;;13.90;99.90;;;;;;5030648;28;20075;-73
2022/10/27 07:00:19;;;;;;;10.38;6.90;;;13.90;99.90;;;;;;5038562;28;20104;-72
2022/10/27 07:02:45;;;;;;;9.93;6.45;;;13.90;99.90;;;;;;5034431;28;20037;-72
2022/10/27 07:05:11;;;;;;;9.63;7.00;;;14.00;99.90;;;;;;5031977;28;20076;-73
2022/10/27 07:07:37;;;;;;;9.25;6.57;;;14.00;99.90;;;;;;5029396;28;20065;-72
2022/10/27 07:10:05;;;;;;;7.43;6.07;;;14.10;99.90;;;;;;5034490;28;20028;-73
2022/10/27 07:12:31;;;;;;;8.90;6.07;;;14.10;99.90;;;;;;5031440;28;20440;-72
2022/10/27 07:14:56;;;;;;;11.95;6.45;;;14.10;99.90;;;;;;5034496;28;20034;-73
2022/10/27 07:17:23;;;;;;;8.85;6.53;;;14.20;99.90;;;;;;5046155;28;20026;-74
2022/10/27 07:19:49;;;;;;;10.20;6.10;;;14.20;99.90;;;;;;5037714;28;20370;-71
2022/10/27 07:22:14;;;;;;;11.13;6.88;;;14.20;99.90;;;;;;5045010;28;20040;-73
2022/10/27 07:24:40;;;;;;;11.07;7.40;;;14.30;99.90;;;;;;5031793;28;20045;-73
2022/10/27 07:27:05;;;;;;;12.23;6.25;;;14.30;99.90;;;;;;5039021;28;20504;-71
2022/10/27 07:29:31;;;;;;;14.40;6.63;;;14.30;99.90;;;;;;5048678;28;20041;-73
2022/10/27 07:31:57;;;;;;;10.88;7.28;;;14.40;99.90;;;;;;5051509;28;20404;-73
2022/10/27 07:34:22;;;;;;;15.02;8.27;;;14.40;99.90;;;;;;5036772;28;20051;-74
2022/10/27 07:36:48;;;;;;;9.85;7.30;;;14.50;99.90;;;;;;5031774;28;20472;-74
2022/10/27 07:39:14;;;;;;;10.40;6.53;;;14.60;99.90;;;;;;5043802;28;20072;-73
2022/10/27 07:41:39;;;;;;;10.38;6.72;;;14.60;99.90;;;;;;5051436;28;20071;-73
2022/10/27 07:44:05;;;;;;;12.68;7.07;;;14.70;99.90;;;;;;5035093;28;20033;-73
2022/10/27 07:46:30;;;;;;;12.95;8.80;;;14.70;99.90;;;;;;5034260;28;20029;-73
2022/10/27 07:48:56;;;;;;;12.85;7.90;;;14.80;99.90;;;;;;5035311;28;20423;-73
2022/10/27 07:51:21;;;;;;;12.57;7.75;;;14.90;99.90;;;;;;5038136;28;20036;-72
2022/10/27 07:53:49;;;;;;;10.30;7.78;;;14.90;99.90;;;;;;5042484;28;20037;-73
2022/10/27 07:56:17;;;;;;;12.95;7.78;;;15.00;99.90;;;;;;5038328;28;20032;-73
2022/10/27 07:58:42;;;;;;;10.40;7.15;;;15.10;99.90;;;;;;5044093;28;20055;-73
2022/10/27 08:01:10;;;;;;;11.15;7.57;;;15.20;99.90;;;;;;5042386;28;20482;-73
2022/10/27 08:03:36;;;;;;;9.82;7.43;;;15.30;99.90;;;;;;5033028;28;20044;-73
2022/10/27 08:06:02;;;;;;;11.48;7.30;;;15.30;99.90;;;;;;5032918;28;20979;-73
2022/10/27 08:08:28;;;;;;;10.10;7.25;;;15.40;99.90;;;;;;5035375;28;20396;-73
2022/10/27 08:10:53;;;;;;;12.73;7.45;;;15.40;99.90;;;;;;5033128;28;20079;-74
2022/10/27 08:13:19;;;;;;;10.93;7.63;;;15.50;99.90;;;;;;5032924;28;20025;-73
2022/10/27 08:15:45;;;;;;;12.40;8.27;;;15.60;99.90;;;;;;5032069;28;20022;-73
2022/10/27 08:18:12;;;;;;;10.90;7.13;;;15.60;99.90;;;;;;5030120;28;20029;-73
2022/10/27 08:20:45;;;;;;;10.85;7.95;;;15.60;99.90;;;;;;5032705;28;20026;-75
2022/10/27 08:23:16;;;;;;;10.15;6.78;;;15.60;99.90;;;;;;5038750;28;20081;-73
2022/10/27 08:25:42;;;;;;;10.98;7.43;;;15.70;99.90;;;;;;5051390;28;20029;-72
2022/10/27 08:28:12;;;;;;;10.60;6.40;;;15.80;99.90;;;;;;5038930;28;20037;-73
2022/10/27 08:30:38;;;;;;;11.40;6.88;;;15.80;99.90;;;;;;5035654;28;20029;-73
2022/10/27 08:33:04;;;;;;;10.80;7.18;;;15.80;99.90;;;;;;5038842;28;20059;-72
2022/10/27 08:35:31;;;;;;;10.38;6.85;;;15.90;99.90;;;;;;5053065;28;20032;-72
2022/10/27 08:38:05;;;;;;;10.10;6.95;;;15.90;99.90;;;;;;5045618;28;20029;-72
2022/10/27 08:40:36;;;;;;;8.70;6.72;;;16.00;99.90;;;;;;5022765;28;20108;-72
2022/10/27 08:43:10;;;;;;;11.63;6.93;;;16.00;99.90;;;;;;5050160;28;20427;-71
2022/10/27 08:45:53;;;;;;;8.48;5.93;;;16.00;99.90;;;;;;5032754;28;20029;-72
2022/10/27 08:48:24;;;;;;;10.90;6.70;;;16.10;99.90;;;;;;5030372;28;20033;-71
2022/10/27 08:50:51;;;;;;;9.25;6.30;;;16.10;99.90;;;;;;5031045;28;20451;-72
2022/10/27 08:53:29;;;;;;;8.52;6.20;;;16.20;99.90;;;;;;5033556;28;20507;-71
2022/10/27 08:56:05;;;;;;;16.92;7.65;;;16.20;99.90;;;;;;5032110;28;20080;-72
2022/10/27 08:58:39;;;;;;;12.00;7.50;;;16.30;99.90;;;;;;5025399;28;20029;-73
2022/10/27 09:01:08;;;;;;;8.93;6.47;;;16.30;99.90;;;;;;5017280;28;20381;-73
2022/10/27 09:04:11;;;;;;;8.93;6.53;;;16.40;99.90;;;;;;5041171;28;20541;-72
2022/10/27 09:06:59;;;;;;;13.05;7.00;;;16.50;99.90;;;;;;5030177;28;20365;-73
2022/10/27 09:09:50;;;;;;;12.90;7.07;;;16.50;99.90;;;;;;5032154;28;20135;-73
2022/10/27 09:12:39;;;;;;;13.20;7.18;;;16.50;99.90;;;;;;5024725;28;20497;-73
2022/10/27 09:15:26;;;;;;;12.02;6.70;;;16.60;99.90;;;;;;5012317;28;20481;-73
2022/10/27 09:17:55;;;;;;;11.00;7.03;;;16.60;99.90;;;;;;5023282;28;20342;-72
2022/10/27 09:20:45;;;;;;;9.82;7.15;;;16.70;99.90;;;;;;5012359;28;20064;-73
2022/10/27 09:23:19;;;;;;;8.95;6.13;;;16.80;99.90;;;;;;5031416;28;20458;-73
2022/10/27 09:25:51;;;;;;;8.63;6.13;;;16.80;99.90;;;;;;5014333;28;20087;-73
2022/10/27 09:28:32;;;;;;;11.65;5.97;;;16.90;99.90;;;;;;5031237;28;20484;-73
2022/10/27 09:30:59;;;;;;;8.95;5.55;;;17.00;99.90;;;;;;5031752;28;20021;-73
2022/10/27 09:33:35;;;;;;;8.82;5.28;;;17.00;99.90;;;;;;5031706;28;20447;-73
2022/10/27 09:36:14;;;;;;;7.88;5.40;;;17.00;99.90;;;;;;5031268;28;20052;-73
2022/10/27 09:38:40;;;;;;;8.45;5.60;;;17.10;99.90;;;;;;5031557;28;20469;-73
2022/10/27 09:41:06;;;;;;;12.68;5.10;;;17.20;99.90;;;;;;5031769;28;20025;-73
2022/10/27 09:43:35;;;;;;;8.00;5.57;;;17.30;99.90;;;;;;5024811;28;20504;-73
2022/10/27 09:46:24;;;;;;;8.90;5.32;;;17.30;99.90;;;;;;5031634;28;20036;-73
2022/10/27 09:49:02;;;;;;;10.93;5.53;;;17.40;99.90;;;;;;5027177;28;20489;-72
2022/10/27 09:51:42;;;;;;;8.48;5.55;;;17.50;99.90;;;;;;5018723;28;20567;-72
2022/10/27 09:54:28;;;;;;;8.85;5.40;;;17.50;99.90;;;;;;5037044;28;20499;-72
2022/10/27 09:56:55;;;;;;;9.60;5.75;;;17.60;99.90;;;;;;5041960;28;20112;-72
2022/10/27 09:59:22;;;;;;;8.38;5.57;;;17.60;99.90;;;;;;5018566;28;20030;-73
2022/10/27 10:01:56;;;;;;;10.43;6.82;;;17.70;99.90;;;;;;5029389;28;20025;-73
2022/10/27 10:04:30;;;;;;;6.87;5.30;;;17.70;99.90;;;;;;5032215;28;20041;-73
2022/10/27 10:07:04;;;;;;;10.00;5.73;;;17.80;99.90;;;;;;5030011;28;20036;-73
2022/10/27 10:09:32;;;;;;;8.88;6.38;;;17.90;99.90;;;;;;5031885;28;20759;-73
2022/10/27 10:12:19;;;;;;;11.63;5.80;;;18.00;99.90;;;;;;5030908;28;20381;-73
2022/10/27 10:14:46;;;;;;;9.00;5.90;;;18.00;99.90;;;;;;5027455;28;20033;-73
2022/10/27 10:17:25;;;;;;;10.40;6.32;;;18.10;99.90;;;;;;5023364;28;20851;-73
2022/10/27 10:19:55;;;;;;;9.15;5.63;;;18.20;99.90;;;;;;5044425;28;20243;-73
2022/10/27 10:22:32;;;;;;;10.35;6.07;;;18.30;99.90;;;;;;5032255;28;20041;-74
2022/10/27 10:25:06;;;;;;;7.90;5.75;;;18.40;99.90;;;;;;5031186;28;20040;-74
2022/10/27 10:27:33;;;;;;;10.43;6.07;;;18.50;99.90;;;;;;5031894;28;20044;-74
2022/10/27 10:30:02;;;;;;;8.00;5.55;;;18.60;99.90;;;;;;5028737;28;20033;-75
2022/10/27 10:32:34;;;;;;;12.35;4.80;;;18.70;99.90;;;;;;5011011;28;20093;-72
2022/10/27 10:35:01;;;;;;;11.32;5.63;;;18.80;99.90;;;;;;5023558;28;20108;-75
2022/10/27 10:37:31;;;;;;;6.63;4.70;;;18.90;99.90;;;;;;5031476;28;20385;-74
2022/10/27 10:40:27;;;;;;;10.25;4.70;;;18.90;99.90;;;;;;5030768;28;20446;-74
2022/10/27 10:43:13;;;;;;;8.82;5.30;;;19.00;99.90;;;;;;5016726;28;20500;-75
2022/10/27 10:45:40;;;;;;;6.60;4.45;;;19.10;99.90;;;;;;5032065;28;20042;-75
2022/10/27 10:48:22;;;;;;;5.65;3.72;;;19.10;99.90;;;;;;5033895;28;22076;-75
2022/10/27 10:50:49;;;;;;;8.43;4.03;;;19.10;99.90;;;;;;5034875;28;20026;-75
2022/10/27 10:53:25;;;;;;;9.13;4.35;;;19.20;99.90;;;;;;5035039;28;20120;-74
2022/10/27 10:55:54;;;;;;;8.55;3.78;;;19.20;99.90;;;;;;5032787;28;20034;-76
2022/10/27 10:58:22;;;;;;;6.20;4.07;;;19.30;99.90;;;;;;5024073;28;20128;-75
2022/10/27 11:00:54;;;;;;;6.85;4.40;;;19.30;99.90;;;;;;5034168;28;20030;-74
2022/10/27 11:03:23;;;;;;;8.82;4.00;;;19.30;99.90;;;;;;5033154;28;20499;-74
2022/10/27 11:05:57;;;;;;;8.68;4.30;;;19.40;99.90;;;;;;5035184;28;20029;-76
2022/10/27 11:08:40;;;;;;;8.25;4.65;;;19.40;99.90;;;;;;5028282;28;20071;-76
2022/10/27 11:11:17;;;;;;;7.03;3.53;;;19.50;99.90;;;;;;5018514;28;20033;-77
2022/10/27 11:13:49;;;;;;;8.13;3.95;;;19.50;99.90;;;;;;5029496;28;20030;-76
2022/10/27 11:16:15;;;;;;;5.93;3.60;;;19.50;99.90;;;;;;5014757;28;20096;-76
2022/10/27 11:18:46;;;;;;;7.38;3.35;;;19.60;99.90;;;;;;5032409;28;20025;-75
2022/10/27 11:21:27;;;;;;;4.68;2.90;;;19.60;99.90;;;;;;5034248;28;20083;-75
2022/10/27 11:23:59;;;;;;;7.68;3.60;;;19.60;99.90;;;;;;5033603;28;20099;-76
2022/10/27 11:27:08;;;;;;;9.00;3.35;;;19.60;99.90;;;;;;5033771;28;20029;-77
2022/10/27 11:30:03;;;;;;;6.93;3.28;;;19.60;99.90;;;;;;5032677;28;20082;-76
2022/10/27 11:32:48;;;;;;;6.50;2.95;;;19.70;99.90;;;;;;5020149;28;20029;-76
2022/10/27 11:35:30;;;;;;;5.65;3.58;;;19.70;99.90;;;;;;5028171;28;20022;-77
2022/10/27 11:38:43;;;;;;;6.97;3.30;;;19.70;99.90;;;;;;5033973;28;20112;-76
2022/10/27 11:41:15;;;;;;;5.45;3.15;;;19.70;99.90;;;;;;5034154;28;20040;-75
2022/10/27 11:44:06;;;;;;;5.22;2.90;;;19.70;99.90;;;;;;5033636;28;20049;-76
2022/10/27 11:46:37;;;;;;;7.25;2.90;;;19.80;99.90;;;;;;5018624;28;20034;-76
2022/10/27 11:49:24;;;;;;;5.13;3.08;;;19.80;99.90;;;;;;5033334;28;20109;-76
2022/10/27 11:52:12;;;;;;;6.00;3.30;;;19.80;99.90;;;;;;5032476;28;20024;-76
2022/10/27 11:54:38;;;;;;;11.00;3.65;;;19.80;99.90;;;;;;5042587;28;20045;-76
2022/10/27 11:57:45;;;;;;;7.35;3.25;;;19.90;99.80;;;;;;5032978;28;20068;-76
2022/10/27 12:00:28;;;;;;;5.50;3.10;;;19.90;99.80;;;;;;5041073;28;20040;-76
2022/10/27 12:03:31;;;;;;;8.35;3.50;;;20.00;99.80;;;;;;5021689;28;20103;-76
2022/10/27 12:06:14;;;;;;;9.45;3.35;;;20.00;99.80;;;;;;5036265;28;20033;-77
2022/10/27 12:08:43;;;;;;;6.50;3.28;;;20.00;99.80;;;;;;5032715;28;20041;-76
2022/10/27 12:11:42;;;;;;;7.80;3.22;;;20.00;99.80;;;;;;5052773;28;20076;-76
2022/10/27 12:14:26;;;;;;;5.38;3.38;;;20.00;99.90;;;;;;5043035;28;20025;-76
2022/10/27 12:17:13;;;;;;;7.10;3.25;;;20.00;99.80;;;;;;5046900;28;20040;-76
2022/10/27 12:19:42;;;;;;;4.07;2.78;;;20.00;99.90;;;;;;5032357;28;20076;-77
2022/10/27 12:22:29;;;;;;;9.90;3.10;;;20.00;99.80;;;;;;5041634;28;20040;-76
2022/10/27 12:25:10;;;;;;;8.18;4.03;;;20.00;99.80;;;;;;5039021;28;20029;-77
2022/10/27 12:27:43;;;;;;;5.68;3.25;;;20.10;99.80;;;;;;5033068;28;20039;-76
2022/10/27 12:30:16;;;;;;;4.97;2.67;;;20.10;99.70;;;;;;5037384;28;20107;-76
2022/10/27 12:33:18;;;;;;;4.40;3.42;;;20.10;99.60;;;;;;5052509;28;20033;-76
2022/10/27 12:35:58;;;;;;;6.10;3.58;;;20.10;99.60;;;;;;5032618;28;20026;-77
2022/10/27 12:38:43;;;;;;;5.68;3.60;;;20.20;99.50;;;;;;5032435;28;20044;-76
2022/10/27 12:41:21;;;;;;;6.40;2.90;;;20.20;99.50;;;;;;5029260;28;20472;-76
2022/10/27 12:44:25;;;;;;;6.03;2.78;;;20.20;99.30;;;;;;5041201;28;20038;-76
2022/10/27 12:46:57;;;;;;;10.32;4.32;;;20.30;99.20;;;;;;5019994;28;20242;-77
2022/10/27 12:49:44;;;;;;;5.82;2.70;;;20.30;99.00;;;;;;5032018;28;20120;-76
2022/10/27 12:52:27;;;;;;;5.53;2.80;;;20.30;99.00;;;;;;5032798;28;20428;-77
2022/10/27 12:54:58;;;;;;;6.32;3.08;;;20.30;98.70;;;;;;5041452;28;20036;-77
2022/10/27 12:57:35;;;;;;;6.93;3.03;;;20.40;98.70;;;;;;5035636;28;20049;-77
2022/10/27 13:00:15;;;;;;;8.35;2.72;;;20.40;98.60;;;;;;5034483;28;20094;-77
2022/10/27 13:03:14;;;;;;;4.63;2.97;;;20.40;98.60;;;;;;5048875;28;20111;-77
2022/10/27 13:06:07;;;;;;;7.32;2.90;;;20.50;98.60;;;;;;5031863;28;20033;-77
2022/10/27 13:09:00;;;;;;;6.80;3.08;;;20.50;98.60;;;;;;5038299;28;20083;-77